Time;durP1;ratioP1;P1;durP2;ratioP2;P2;SDS_P1;SDS_P2;PMS_P1;PMS_P2;Temp;Humidity;BMP_temperature;BMP_pressure;BME280_temperature;BME280_humidity;BME280_pressure;Samples;Min_cycle;Max_cycle;Signal;HPM_P1;HPM_P2
2022/03/09 00:01:50;;;;;;;4.50;2.60;;;;;;;;;;5063581;28;20025;-78
2022/03/09 00:04:15;;;;;;;4.00;2.80;;;;;;;;;;5045905;28;20031;-76
2022/03/09 00:06:41;;;;;;;7.15;2.75;;;;;;;;;;5045774;28;20028;-79
2022/03/09 00:09:06;;;;;;;6.63;2.80;;;;;;;;;;5063740;28;20013;-78
2022/03/09 00:11:32;;;;;;;4.10;2.53;;;;;;;;;;5063939;28;20028;-79
2022/03/09 00:13:58;;;;;;;3.25;1.98;;;;;;;;;;5063176;28;20017;-78
2022/03/09 00:16:24;;;;;;;5.13;2.80;;;;;;;;;;5063438;28;20036;-78
2022/03/09 00:18:49;;;;;;;4.88;2.67;;;;;;;;;;5045474;28;20052;-79
2022/03/09 00:21:15;;;;;;;4.45;2.70;;;;;;;;;;5063572;28;20064;-79
2022/03/09 00:23:40;;;;;;;5.47;2.35;;;;;;;;;;5063608;28;20402;-77
2022/03/09 00:26:06;;;;;;;7.15;2.65;;;;;;;;;;5063452;28;20247;-77
2022/03/09 00:28:32;;;;;;;5.35;2.45;;;;;;;;;;5063170;28;20059;-77
2022/03/09 00:30:57;;;;;;;4.68;2.60;;;;;;;;;;5045583;28;20024;-78
2022/03/09 00:33:23;;;;;;;6.22;2.58;;;;;;;;;;5063156;28;20029;-77
2022/03/09 00:35:48;;;;;;;4.57;2.55;;;;;;;;;;5063186;28;20021;-77
2022/03/09 00:38:13;;;;;;;7.82;3.15;;;;;;;;;;5062440;28;20033;-78
2022/03/09 00:40:39;;;;;;;8.68;2.63;;;;;;;;;;5045460;28;20074;-78
2022/03/09 00:43:05;;;;;;;6.57;2.40;;;;;;;;;;5063093;28;20058;-78
2022/03/09 00:45:30;;;;;;;8.68;3.22;;;;;;;;;;5045161;28;20017;-78
2022/03/09 00:47:55;;;;;;;5.70;2.97;;;;;;;;;;5062840;28;20044;-79
2022/03/09 00:50:21;;;;;;;3.75;2.47;;;;;;;;;;5063158;28;20077;-77
2022/03/09 00:52:49;;;;;;;7.55;2.88;;;;;;;;;;5062945;28;20535;-79
2022/03/09 00:55:15;;;;;;;6.25;2.97;;;;;;;;;;5045033;28;20020;-78
2022/03/09 00:57:40;;;;;;;3.55;2.35;;;;;;;;;;5044865;28;20020;-78
2022/03/09 01:00:09;;;;;;;4.90;2.20;;;;;;;;;;5063156;28;20017;-79
2022/03/09 01:02:43;;;;;;;5.78;2.78;;;;;;;;;;5045122;28;20021;-77
2022/03/09 01:05:09;;;;;;;5.82;2.78;;;;;;;;;;5062788;28;20013;-77
2022/03/09 01:07:35;;;;;;;7.07;2.53;;;;;;;;;;5062689;28;20044;-77
2022/03/09 01:10:00;;;;;;;6.82;2.53;;;;;;;;;;5044366;28;20013;-77
2022/03/09 01:12:26;;;;;;;4.40;2.67;;;;;;;;;;5063160;28;20028;-78
2022/03/09 01:14:51;;;;;;;4.80;2.45;;;;;;;;;;5062489;28;20044;-78
2022/03/09 01:17:17;;;;;;;5.03;2.35;;;;;;;;;;5044700;28;20341;-77
2022/03/09 01:19:42;;;;;;;4.38;2.50;;;;;;;;;;5062543;28;20028;-78
2022/03/09 01:22:07;;;;;;;3.63;2.20;;;;;;;;;;5062917;28;20028;-78
2022/03/09 01:24:33;;;;;;;5.63;2.53;;;;;;;;;;5062273;28;20025;-78
2022/03/09 01:26:58;;;;;;;4.10;2.42;;;;;;;;;;5062950;28;20082;-77
2022/03/09 01:29:24;;;;;;;3.17;1.88;;;;;;;;;;5044469;28;20108;-78
2022/03/09 01:31:49;;;;;;;3.78;2.10;;;;;;;;;;5044771;28;20028;-77
2022/03/09 01:34:15;;;;;;;4.32;2.22;;;;;;;;;;5044894;28;20052;-78
2022/03/09 01:36:40;;;;;;;3.85;2.40;;;;;;;;;;5044548;28;20027;-77
2022/03/09 01:39:05;;;;;;;3.83;2.20;;;;;;;;;;5062431;28;20154;-77
2022/03/09 01:41:31;;;;;;;5.80;2.42;;;;;;;;;;5044721;28;20276;-77
2022/03/09 01:44:14;;;;;;;4.72;2.40;;;;;;;;;;5044536;28;20446;-77
2022/03/09 01:46:41;;;;;;;5.38;2.30;;;;;;;;;;5062227;28;20013;-77
2022/03/09 01:49:07;;;;;;;4.03;2.30;;;;;;;;;;5062540;28;20047;-77
2022/03/09 01:51:35;;;;;;;3.42;1.83;;;;;;;;;;5066383;28;20029;-77
2022/03/09 01:54:03;;;;;;;5.60;2.03;;;;;;;;;;5066049;28;20459;-77
2022/03/09 01:56:28;;;;;;;3.67;2.17;;;;;;;;;;5066620;28;20028;-78
2022/03/09 01:58:54;;;;;;;6.15;2.30;;;;;;;;;;5066138;28;20013;-78
2022/03/09 02:01:19;;;;;;;3.78;2.00;;;;;;;;;;5065922;28;20104;-77
2022/03/09 02:03:44;;;;;;;4.63;2.00;;;;;;;;;;5065983;28;20021;-77
2022/03/09 02:06:10;;;;;;;4.45;1.90;;;;;;;;;;5066367;28;20032;-76
2022/03/09 02:11:21;;;;;;;3.70;2.03;;;;;;;;;;5066236;28;20028;-78
2022/03/09 02:13:46;;;;;;;6.55;2.25;;;;;;;;;;5065957;28;20108;-77
2022/03/09 02:16:14;;;;;;;4.10;2.05;;;;;;;;;;5065646;28;20048;-76
2022/03/09 02:18:40;;;;;;;4.10;2.00;;;;;;;;;;5047458;28;20457;-76
2022/03/09 02:21:08;;;;;;;4.15;2.00;;;;;;;;;;5065949;28;20021;-78
2022/03/09 02:23:34;;;;;;;2.95;1.80;;;;;;;;;;5065526;28;20075;-77
2022/03/09 02:25:59;;;;;;;4.38;1.90;;;;;;;;;;5065805;28;20387;-77
2022/03/09 02:28:25;;;;;;;4.72;2.00;;;;;;;;;;5065528;28;20029;-77
2022/03/09 02:30:57;;;;;;;4.70;1.98;;;;;;;;;;5065654;28;20194;-77
2022/03/09 02:33:22;;;;;;;4.70;1.83;;;;;;;;;;5065484;28;20025;-78
2022/03/09 02:35:51;;;;;;;6.32;1.98;;;;;;;;;;5047771;28;20068;-77
2022/03/09 02:38:16;;;;;;;8.23;1.90;;;;;;;;;;5065052;28;20032;-78
2022/03/09 02:40:41;;;;;;;4.65;2.05;;;;;;;;;;5047769;28;20028;-78
2022/03/09 02:43:09;;;;;;;3.20;1.90;;;;;;;;;;5065325;28;20035;-77
2022/03/09 02:45:34;;;;;;;3.65;2.00;;;;;;;;;;5047319;28;20044;-78
2022/03/09 02:48:00;;;;;;;4.55;1.92;;;;;;;;;;5065194;28;20036;-77
2022/03/09 02:50:25;;;;;;;3.88;2.05;;;;;;;;;;5065282;28;20013;-78
2022/03/09 02:52:51;;;;;;;3.88;2.08;;;;;;;;;;5065224;28;20037;-77
2022/03/09 02:55:16;;;;;;;4.93;2.13;;;;;;;;;;5064998;28;20430;-77
2022/03/09 02:57:42;;;;;;;7.57;2.20;;;;;;;;;;5047043;28;20487;-78
2022/03/09 03:00:09;;;;;;;3.58;2.03;;;;;;;;;;5064691;28;20044;-77
2022/03/09 03:02:35;;;;;;;2.92;1.73;;;;;;;;;;5064977;28;20044;-77
2022/03/09 03:05:01;;;;;;;5.88;1.88;;;;;;;;;;5064681;28;20063;-77
2022/03/09 03:07:27;;;;;;;2.78;1.73;;;;;;;;;;5046969;28;20119;-77
2022/03/09 03:09:52;;;;;;;3.78;2.00;;;;;;;;;;5064204;28;20029;-78
2022/03/09 03:12:18;;;;;;;4.63;2.08;;;;;;;;;;5064776;28;20027;-75
2022/03/09 03:14:43;;;;;;;2.72;1.60;;;;;;;;;;5064311;28;20225;-78
2022/03/09 03:17:08;;;;;;;3.72;2.25;;;;;;;;;;5046357;28;20049;-78
2022/03/09 03:19:34;;;;;;;4.00;2.05;;;;;;;;;;5064952;28;20025;-77
2022/03/09 03:21:59;;;;;;;5.20;2.28;;;;;;;;;;5046657;28;20032;-77
2022/03/09 03:24:27;;;;;;;3.45;1.77;;;;;;;;;;5064485;28;20441;-77
2022/03/09 03:26:53;;;;;;;6.55;2.05;;;;;;;;;;5064758;28;20020;-77
2022/03/09 03:29:18;;;;;;;7.80;2.20;;;;;;;;;;5064414;28;20029;-77
2022/03/09 03:31:43;;;;;;;3.90;1.98;;;;;;;;;;5046758;28;20021;-76
2022/03/09 03:34:09;;;;;;;7.07;1.98;;;;;;;;;;5046376;28;20048;-76
2022/03/09 03:36:34;;;;;;;3.92;1.88;;;;;;;;;;5064232;28;20029;-77
2022/03/09 03:38:59;;;;;;;5.63;2.13;;;;;;;;;;5064156;28;20056;-76
2022/03/09 03:41:25;;;;;;;6.55;2.13;;;;;;;;;;5064327;28;20017;-75
2022/03/09 03:43:50;;;;;;;4.50;2.13;;;;;;;;;;5064355;28;20031;-77
2022/03/09 03:46:16;;;;;;;3.28;1.90;;;;;;;;;;5064219;28;20021;-77
2022/03/09 03:48:41;;;;;;;3.13;1.90;;;;;;;;;;5063982;28;20021;-77
2022/03/09 03:51:07;;;;;;;3.50;2.08;;;;;;;;;;5064273;28;20490;-76
2022/03/09 03:53:32;;;;;;;5.47;2.20;;;;;;;;;;5063774;28;20040;-77
2022/03/09 03:55:58;;;;;;;4.82;1.80;;;;;;;;;;5064044;28;20055;-76
2022/03/09 03:58:23;;;;;;;3.85;1.85;;;;;;;;;;5063833;28;20025;-77
2022/03/09 04:00:48;;;;;;;6.32;1.90;;;;;;;;;;5046151;28;20245;-77
2022/03/09 04:03:14;;;;;;;4.32;1.80;;;;;;;;;;5045839;28;20117;-78
2022/03/09 04:05:39;;;;;;;4.40;1.67;;;;;;;;;;5064091;28;20025;-75
2022/03/09 04:08:05;;;;;;;4.55;1.75;;;;;;;;;;5063323;28;20021;-77
2022/03/09 04:10:30;;;;;;;6.53;1.80;;;;;;;;;;5063973;28;20342;-76
2022/03/09 04:13:03;;;;;;;4.40;1.55;;;;;;;;;;5044560;28;20083;-77
2022/03/09 04:15:32;;;;;;;;;;;;;;;;;;5047299;28;20083;-77
2022/03/09 04:17:58;;;;;;;4.20;1.77;;;;;;;;;;5063287;28;19909;-76
2022/03/09 04:20:23;;;;;;;4.03;1.92;;;;;;;;;;5045846;28;20029;-75
2022/03/09 04:22:49;;;;;;;4.22;1.80;;;;;;;;;;5045409;28;20028;-77
2022/03/09 04:25:15;;;;;;;4.43;2.10;;;;;;;;;;5063474;28;20031;-76
2022/03/09 04:27:40;;;;;;;3.33;1.60;;;;;;;;;;5063248;28;20021;-77
2022/03/09 04:30:07;;;;;;;6.60;2.10;;;;;;;;;;5063164;28;20052;-78
2022/03/09 04:32:34;;;;;;;3.33;2.00;;;;;;;;;;5063350;28;20028;-77
2022/03/09 04:35:00;;;;;;;7.50;1.88;;;;;;;;;;5063342;28;20025;-77
2022/03/09 04:37:26;;;;;;;3.67;2.00;;;;;;;;;;5063405;28;20616;-76
2022/03/09 04:39:53;;;;;;;4.30;1.63;;;;;;;;;;5063002;28;20021;-76
2022/03/09 04:42:18;;;;;;;8.10;2.35;;;;;;;;;;5063180;28;20017;-76
2022/03/09 04:44:44;;;;;;;3.28;1.50;;;;;;;;;;5063008;28;20024;-76
2022/03/09 04:47:09;;;;;;;3.30;2.00;;;;;;;;;;5063153;28;20120;-76
2022/03/09 04:49:35;;;;;;;2.80;1.80;;;;;;;;;;5063258;28;20029;-77
2022/03/09 04:52:00;;;;;;;3.53;2.00;;;;;;;;;;5063137;28;20473;-76
2022/03/09 04:54:25;;;;;;;5.38;1.85;;;;;;;;;;5062817;28;20031;-77
2022/03/09 04:56:51;;;;;;;6.15;1.88;;;;;;;;;;5062967;28;20033;-76
2022/03/09 04:59:17;;;;;;;6.10;1.98;;;;;;;;;;5063157;28;20040;-76
2022/03/09 05:01:42;;;;;;;3.97;2.40;;;;;;;;;;5062894;28;20359;-77
2022/03/09 05:04:07;;;;;;;3.60;1.90;;;;;;;;;;5062310;28;20028;-76
2022/03/09 05:06:33;;;;;;;5.22;2.08;;;;;;;;;;5062639;28;20029;-76
2022/03/09 05:08:58;;;;;;;3.85;1.67;;;;;;;;;;5062787;28;20048;-76
2022/03/09 05:11:24;;;;;;;4.13;1.65;;;;;;;;;;5062911;28;20021;-76
2022/03/09 05:13:49;;;;;;;3.15;1.88;;;;;;;;;;5044561;28;20035;-76
2022/03/09 05:16:14;;;;;;;3.25;1.98;;;;;;;;;;5062624;28;20048;-76
2022/03/09 05:18:40;;;;;;;3.22;1.70;;;;;;;;;;5062765;28;20025;-76
2022/03/09 05:21:06;;;;;;;7.90;2.10;;;;;;;;;;5062936;28;20033;-76
2022/03/09 05:23:32;;;;;;;3.40;2.15;;;;;;;;;;5063839;28;20025;-76
2022/03/09 05:25:57;;;;;;;4.93;1.73;;;;;;;;;;5049226;28;20024;-77
2022/03/09 05:28:23;;;;;;;4.50;1.95;;;;;;;;;;5048797;28;20467;-76
2022/03/09 05:30:48;;;;;;;4.45;2.28;;;;;;;;;;5066917;28;20052;-76
2022/03/09 05:33:13;;;;;;;6.70;2.03;;;;;;;;;;5066819;28;20029;-77
2022/03/09 05:35:39;;;;;;;11.82;2.20;;;;;;;;;;5066942;28;20021;-76
2022/03/09 05:38:04;;;;;;;3.22;1.90;;;;;;;;;;5066833;28;20503;-77
2022/03/09 05:40:30;;;;;;;4.68;2.03;;;;;;;;;;5066863;28;20036;-76
2022/03/09 05:42:55;;;;;;;2.90;1.60;;;;;;;;;;5066857;28;20017;-76
2022/03/09 05:45:21;;;;;;;3.17;1.85;;;;;;;;;;5066739;28;20487;-76
2022/03/09 05:47:46;;;;;;;3.13;1.75;;;;;;;;;;5066367;28;20036;-75
2022/03/09 05:50:12;;;;;;;7.00;2.20;;;;;;;;;;5066642;28;20394;-76
2022/03/09 05:52:37;;;;;;;3.70;1.85;;;;;;;;;;5066396;28;20092;-76
2022/03/09 05:55:06;;;;;;;5.30;2.08;;;;;;;;;;5066152;28;20463;-76
2022/03/09 05:57:31;;;;;;;3.75;2.05;;;;;;;;;;5066467;28;20041;-75
2022/03/09 05:59:57;;;;;;;3.50;1.88;;;;;;;;;;5066194;28;20093;-75
2022/03/09 06:02:22;;;;;;;3.70;1.98;;;;;;;;;;5066479;28;20493;-76
2022/03/09 06:04:47;;;;;;;3.17;1.92;;;;;;;;;;5066239;28;20017;-77
2022/03/09 06:07:13;;;;;;;6.53;2.10;;;;;;;;;;5066050;28;20028;-77
2022/03/09 06:09:38;;;;;;;4.93;2.20;;;;;;;;;;5047652;28;20115;-77
2022/03/09 06:12:04;;;;;;;9.25;2.88;;;;;;;;;;5048267;28;20017;-76
2022/03/09 06:14:30;;;;;;;4.20;2.25;;;;;;;;;;5047763;28;20021;-75
2022/03/09 06:16:57;;;;;;;3.47;2.08;;;;;;;;;;5066062;28;20089;-76
2022/03/09 06:19:23;;;;;;;3.97;2.30;;;;;;;;;;5065738;28;20033;-76
2022/03/09 06:21:48;;;;;;;4.07;2.08;;;;;;;;;;5066110;28;20434;-76
2022/03/09 06:24:18;;;;;;;6.97;2.10;;;;;;;;;;5065683;28;20032;-77
2022/03/09 06:26:44;;;;;;;5.28;2.03;;;;;;;;;;5065889;28;20017;-77
2022/03/09 06:29:12;;;;;;;5.30;2.50;;;;;;;;;;5065688;28;20091;-77
2022/03/09 06:31:38;;;;;;;4.22;1.90;;;;;;;;;;5047316;28;20025;-77
2022/03/09 06:34:04;;;;;;;4.05;2.30;;;;;;;;;;5065487;28;20079;-77
2022/03/09 06:36:29;;;;;;;6.63;2.22;;;;;;;;;;5046664;28;20021;-77
2022/03/09 06:38:55;;;;;;;4.10;2.20;;;;;;;;;;5065187;28;20017;-77
2022/03/09 06:41:20;;;;;;;4.65;2.42;;;;;;;;;;5065828;28;20023;-77
2022/03/09 06:43:46;;;;;;;6.15;2.63;;;;;;;;;;5065349;28;20013;-77
2022/03/09 06:46:11;;;;;;;4.25;2.47;;;;;;;;;;5047559;28;20580;-77
2022/03/09 06:48:37;;;;;;;7.07;2.60;;;;;;;;;;5065275;28;20092;-77
2022/03/09 06:51:04;;;;;;;11.20;2.38;;;;;;;;;;5065476;28;20024;-78
2022/03/09 06:53:30;;;;;;;7.35;2.63;;;;;;;;;;5047263;28;20017;-79
2022/03/09 06:55:56;;;;;;;3.92;1.88;;;;;;;;;;5065331;28;20542;-78
2022/03/09 06:58:21;;;;;;;7.93;2.22;;;;;;;;;;5065252;28;20056;-77
2022/03/09 07:00:47;;;;;;;7.90;2.20;;;;;;;;;;5065209;28;20035;-77
2022/03/09 07:03:12;;;;;;;9.27;2.00;;;;;;;;;;5046897;28;20035;-78
2022/03/09 07:05:38;;;;;;;7.50;1.80;;;;;;;;;;5046989;28;20021;-78
2022/03/09 07:08:03;;;;;;;5.20;1.90;;;;;;;;;;5064511;28;20055;-77
2022/03/09 07:10:29;;;;;;;7.20;1.88;;;;;;;;;;5064896;28;20021;-78
2022/03/09 07:12:54;;;;;;;8.45;2.10;;;;;;;;;;5064925;28;20459;-77
2022/03/09 07:15:23;;;;;;;5.63;2.33;;;;;;;;;;5046382;28;20047;-75
2022/03/09 07:17:49;;;;;;;7.43;2.08;;;;;;;;;;5064916;28;20348;-76
2022/03/09 07:20:16;;;;;;;4.78;2.03;;;;;;;;;;5064613;28;20025;-77
2022/03/09 07:22:43;;;;;;;6.90;2.30;;;;;;;;;;5046611;28;20048;-76
2022/03/09 07:25:10;;;;;;;6.05;2.10;;;;;;;;;;5064725;28;20027;-76
2022/03/09 07:27:35;;;;;;;5.65;1.80;;;;;;;;;;5064610;28;20025;-76
2022/03/09 07:30:04;;;;;;;9.80;2.88;;;;;;;;;;5064597;28;20035;-76
2022/03/09 07:32:29;;;;;;;12.40;2.47;;;;;;;;;;5064577;28;20418;-77
2022/03/09 07:34:54;;;;;;;4.13;1.55;;;;;;;;;;5046673;28;20025;-76
2022/03/09 07:37:20;;;;;;;5.90;1.90;;;;;;;;;;5064680;28;20035;-76
2022/03/09 07:39:45;;;;;;;5.18;1.55;;;;;;;;;;5064437;28;20036;-76
2022/03/09 07:42:10;;;;;;;10.52;1.98;;;;;;;;;;5064726;28;20025;-77
2022/03/09 07:44:36;;;;;;;6.57;1.70;;;;;;;;;;5064082;28;20081;-75
2022/03/09 07:47:02;;;;;;;5.10;1.58;;;;;;;;;;5064265;28;20025;-76
2022/03/09 07:49:27;;;;;;;8.63;2.10;;;;;;;;;;5064285;28;20025;-77
2022/03/09 07:51:52;;;;;;;5.85;1.70;;;;;;;;;;5046588;28;20028;-77
2022/03/09 07:54:18;;;;;;;3.60;1.73;;;;;;;;;;5064126;28;20016;-76
2022/03/09 07:56:44;;;;;;;4.25;1.55;;;;;;;;;;5064374;28;20036;-76
2022/03/09 07:59:11;;;;;;;6.28;1.48;;;;;;;;;;5046133;28;20051;-78
2022/03/09 08:01:36;;;;;;;7.05;1.63;;;;;;;;;;5046113;28;20048;-77
2022/03/09 08:04:02;;;;;;;5.65;1.30;;;;;;;;;;5063905;28;20439;-77
2022/03/09 08:06:27;;;;;;;4.68;1.40;;;;;;;;;;5064033;28;20025;-77
2022/03/09 08:08:53;;;;;;;3.60;1.23;;;;;;;;;;5064033;28;20475;-76
2022/03/09 08:11:18;;;;;;;3.30;1.30;;;;;;;;;;5045929;28;20489;-77
2022/03/09 08:13:44;;;;;;;4.90;1.20;;;;;;;;;;5045867;28;20021;-77
2022/03/09 08:16:09;;;;;;;4.78;1.50;;;;;;;;;;5063688;28;20514;-77
2022/03/09 08:18:34;;;;;;;4.72;1.25;;;;;;;;;;5045777;28;20033;-76
2022/03/09 08:21:00;;;;;;;2.80;1.13;;;;;;;;;;5063912;28;20029;-76
2022/03/09 08:23:26;;;;;;;3.75;1.20;;;;;;;;;;5045698;28;20024;-78
2022/03/09 08:25:52;;;;;;;5.68;1.33;;;;;;;;;;5063689;28;20369;-77
2022/03/09 08:28:18;;;;;;;4.00;1.30;;;;;;;;;;5063654;28;20017;-77
2022/03/09 08:30:44;;;;;;;4.55;1.20;;;;;;;;;;5063892;28;20025;-76
2022/03/09 08:33:09;;;;;;;2.33;1.00;;;;;;;;;;5062594;28;20141;-76
2022/03/09 08:35:35;;;;;;;2.75;1.13;;;;;;;;;;5045456;28;20100;-76
2022/03/09 08:38:00;;;;;;;4.88;1.52;;;;;;;;;;5044919;28;20047;-77
2022/03/09 08:40:26;;;;;;;4.50;1.50;;;;;;;;;;5044880;28;20021;-78
2022/03/09 08:42:52;;;;;;;3.00;1.30;;;;;;;;;;5063314;28;20107;-76
2022/03/09 08:45:17;;;;;;;4.45;1.42;;;;;;;;;;5063272;28;20471;-77
2022/03/09 08:47:42;;;;;;;6.85;1.48;;;;;;;;;;5063044;28;20383;-77
2022/03/09 08:50:09;;;;;;;4.47;1.20;;;;;;;;;;5063429;28;20090;-76
2022/03/09 08:52:34;;;;;;;3.75;1.10;;;;;;;;;;5063368;28;20025;-77
2022/03/09 08:55:00;;;;;;;5.70;1.10;;;;;;;;;;5062797;28;20032;-77
2022/03/09 08:57:25;;;;;;;3.85;1.20;;;;;;;;;;5062976;28;20059;-78
2022/03/09 08:59:50;;;;;;;3.35;1.15;;;;;;;;;;5062317;28;20052;-76
2022/03/09 09:02:16;;;;;;;2.38;0.93;;;;;;;;;;5063087;28;20040;-77
2022/03/09 09:04:42;;;;;;;4.05;1.02;;;;;;;;;;5062634;28;20037;-77
2022/03/09 09:07:07;;;;;;;5.00;1.35;;;;;;;;;;5044953;28;20036;-76
2022/03/09 09:09:33;;;;;;;3.83;1.20;;;;;;;;;;5062552;28;20031;-76
2022/03/09 09:11:59;;;;;;;4.82;1.33;;;;;;;;;;5063052;28;20025;-76
2022/03/09 09:14:26;;;;;;;2.40;0.95;;;;;;;;;;5062904;28;20020;-77
2022/03/09 09:16:51;;;;;;;1.77;0.80;;;;;;;;;;5063432;28;20035;-76
2022/03/09 09:19:17;;;;;;;5.97;1.45;;;;;;;;;;5044893;28;20052;-76
2022/03/09 09:21:42;;;;;;;5.72;1.38;;;;;;;;;;5063338;28;20464;-77
2022/03/09 09:24:08;;;;;;;4.57;1.20;;;;;;;;;;5044872;28;20064;-78
2022/03/09 09:26:33;;;;;;;1.15;0.80;;;;;;;;;;5044906;28;20112;-77
2022/03/09 09:28:58;;;;;;;3.72;1.00;;;;;;;;;;5063208;28;20025;-78
2022/03/09 09:31:24;;;;;;;2.47;1.23;;;;;;;;;;5063323;28;20084;-76
2022/03/09 09:33:50;;;;;;;4.95;1.30;;;;;;;;;;5062979;28;20032;-76
2022/03/09 09:36:16;;;;;;;3.13;1.08;;;;;;;;;;5062796;28;20028;-76
2022/03/09 09:38:41;;;;;;;2.75;1.30;;;;;;;;;;5062856;28;20029;-77
2022/03/09 09:41:10;;;;;;;2.08;1.08;;;;;;;;;;5063109;28;20017;-77
2022/03/09 09:43:38;;;;;;;7.80;1.20;;;;;;;;;;5044692;28;20060;-77
2022/03/09 09:46:03;;;;;;;5.32;1.40;;;;;;;;;;5062626;28;20013;-77
2022/03/09 09:48:28;;;;;;;3.83;1.15;;;;;;;;;;5062538;28;20055;-78
2022/03/09 09:50:54;;;;;;;4.28;1.27;;;;;;;;;;5062674;28;20025;-77
2022/03/09 09:53:23;;;;;;;4.63;1.45;;;;;;;;;;5062410;28;20024;-78
2022/03/09 09:55:48;;;;;;;6.82;1.05;;;;;;;;;;5062612;28;20024;-78
2022/03/09 09:58:17;;;;;;;3.90;1.35;;;;;;;;;;5061906;28;20029;-78
2022/03/09 10:00:44;;;;;;;3.15;1.15;;;;;;;;;;5061751;28;20025;-77
2022/03/09 10:03:10;;;;;;;3.88;1.42;;;;;;;;;;5062109;28;20041;-77
2022/03/09 10:05:35;;;;;;;3.97;1.50;;;;;;;;;;5062688;28;20032;-78
2022/03/09 10:08:03;;;;;;;4.45;1.42;;;;;;;;;;5044689;28;20025;-77
2022/03/09 10:10:51;;;;;;;5.45;1.40;;;;;;;;;;5045216;28;20494;-79
2022/03/09 10:13:19;;;;;;;3.75;1.20;;;;;;;;;;5065220;28;20049;-77
2022/03/09 10:15:48;;;;;;;4.65;1.30;;;;;;;;;;5066337;28;20056;-78
2022/03/09 10:18:19;;;;;;;4.13;1.10;;;;;;;;;;5048356;28;20293;-77
2022/03/09 10:20:47;;;;;;;6.28;1.13;;;;;;;;;;5066768;28;20029;-77
2022/03/09 10:23:13;;;;;;;2.25;0.90;;;;;;;;;;5065870;28;20104;-78
2022/03/09 10:25:40;;;;;;;1.70;0.85;;;;;;;;;;5066264;28;20031;-78
2022/03/09 10:28:08;;;;;;;2.75;1.42;;;;;;;;;;5065965;28;20025;-78
2022/03/09 10:30:36;;;;;;;2.80;0.90;;;;;;;;;;5048007;28;20048;-78
2022/03/09 10:33:04;;;;;;;2.75;1.00;;;;;;;;;;5066060;28;20051;-77
2022/03/09 10:35:29;;;;;;;1.85;0.77;;;;;;;;;;5066040;28;20056;-78
2022/03/09 10:37:55;;;;;;;3.03;0.98;;;;;;;;;;5047687;28;20029;-78
2022/03/09 10:40:22;;;;;;;2.25;0.70;;;;;;;;;;5048093;28;20021;-78
2022/03/09 10:42:49;;;;;;;2.28;0.80;;;;;;;;;;5066190;28;20020;-77
2022/03/09 10:45:17;;;;;;;1.75;0.88;;;;;;;;;;5065758;28;20060;-78
2022/03/09 10:47:47;;;;;;;2.03;0.93;;;;;;;;;;5066344;28;20025;-79
2022/03/09 10:50:33;;;;;;;2.17;0.70;;;;;;;;;;5047996;28;20025;-79
2022/03/09 10:53:02;;;;;;;2.20;0.70;;;;;;;;;;5066346;28;20028;-79
2022/03/09 10:55:30;;;;;;;2.47;0.77;;;;;;;;;;5065617;28;20229;-78
2022/03/09 10:58:14;;;;;;;2.10;0.75;;;;;;;;;;5065440;28;20031;-79
2022/03/09 11:00:40;;;;;;;3.97;0.88;;;;;;;;;;5065843;28;20021;-78
2022/03/09 11:03:11;;;;;;;1.58;0.70;;;;;;;;;;5064892;28;20050;-77
2022/03/09 11:05:46;;;;;;;3.35;0.77;;;;;;;;;;5065253;28;20025;-79
2022/03/09 11:08:12;;;;;;;1.88;0.70;;;;;;;;;;5065198;28;20080;-79
2022/03/09 11:10:37;;;;;;;1.25;0.50;;;;;;;;;;5064993;28;20025;-79
2022/03/09 11:13:03;;;;;;;1.80;0.52;;;;;;;;;;5046738;28;20032;-79
2022/03/09 11:15:29;;;;;;;0.68;0.40;;;;;;;;;;5064382;28;20045;-79
2022/03/09 11:17:54;;;;;;;0.60;0.22;;;;;;;;;;5046780;28;20028;-79
2022/03/09 11:20:20;;;;;;;1.35;0.30;;;;;;;;;;5047193;28;20029;-79
2022/03/09 11:22:45;;;;;;;0.22;0.22;;;;;;;;;;5046493;28;20108;-78
2022/03/09 11:25:11;;;;;;;0.95;0.30;;;;;;;;;;5064838;28;20032;-79
2022/03/09 11:27:46;;;;;;;0.82;0.40;;;;;;;;;;5064663;28;20021;-78
2022/03/09 11:30:28;;;;;;;0.85;0.40;;;;;;;;;;5065036;28;20047;-78
2022/03/09 11:32:58;;;;;;;0.50;0.30;;;;;;;;;;5046584;28;20021;-79
2022/03/09 11:35:40;;;;;;;0.38;0.38;;;;;;;;;;5064585;28;20017;-79
2022/03/09 11:38:39;;;;;;;1.38;0.47;;;;;;;;;;5064652;28;20021;-79
2022/03/09 11:41:36;;;;;;;1.08;0.73;;;;;;;;;;5040996;28;20033;-79
2022/03/09 11:44:20;;;;;;;2.00;0.57;;;;;;;;;;5064499;28;20032;-80
2022/03/09 11:47:00;;;;;;;3.55;0.98;;;;;;;;;;5064397;28;20041;-79
2022/03/09 11:49:41;;;;;;;2.50;0.70;;;;;;;;;;5046430;28;20029;-78
2022/03/09 11:52:13;;;;;;;1.35;0.73;;;;;;;;;;5064378;28;20025;-79
2022/03/09 11:54:44;;;;;;;3.38;0.80;;;;;;;;;;5064419;28;20056;-79
2022/03/09 11:57:14;;;;;;;3.17;0.90;;;;;;;;;;5064379;28;20033;-78
2022/03/09 12:00:12;;;;;;;2.20;0.57;;;;;;;;;;5064191;28;20047;-79
2022/03/09 12:02:46;;;;;;;1.95;0.55;;;;;;;;;;5064195;28;20021;-79
2022/03/09 12:05:24;;;;;;;3.17;0.90;;;;;;;;;;5064076;28;20037;-76
2022/03/09 12:07:51;;;;;;;1.67;0.70;;;;;;;;;;5045937;28;20468;-79
2022/03/09 12:10:17;;;;;;;2.90;0.88;;;;;;;;;;5046119;28;20048;-79
2022/03/09 12:13:23;;;;;;;5.38;1.20;;;;;;;;;;5046050;28;20033;-78
2022/03/09 12:16:12;;;;;;;3.58;1.00;;;;;;;;;;5021080;28;20551;-79
2022/03/09 12:19:04;;;;;;;6.30;2.40;;;;;;;;;;5021490;28;20065;-79
2022/03/09 12:21:35;;;;;;;2.70;0.98;;;;;;;;;;5037956;28;20029;-79
2022/03/09 12:24:00;;;;;;;5.65;1.55;;;;;;;;;;5045728;28;20028;-79
2022/03/09 12:26:44;;;;;;;3.75;1.38;;;;;;;;;;5045863;28;20021;-78
2022/03/09 12:29:21;;;;;;;5.75;1.40;;;;;;;;;;5063601;28;20029;-81
2022/03/09 12:32:01;;;;;;;5.50;1.20;;;;;;;;;;5045821;28;20094;-79
2022/03/09 12:34:28;;;;;;;5.05;1.60;;;;;;;;;;5062986;28;20326;-81
2022/03/09 12:36:54;;;;;;;5.80;2.20;;;;;;;;;;5063545;28;20067;-78
2022/03/09 12:39:20;;;;;;;5.13;1.73;;;;;;;;;;5063460;28;20017;-80
2022/03/09 12:41:51;;;;;;;4.93;1.60;;;;;;;;;;5063701;28;20024;-78
2022/03/09 12:44:18;;;;;;;2.30;1.58;;;;;;;;;;5063110;28;20039;-79
2022/03/09 12:46:47;;;;;;;3.33;2.00;;;;;;;;;;5063214;28;20017;-80
2022/03/09 12:49:28;;;;;;;4.88;1.67;;;;;;;;;;5062858;28;20025;-80
2022/03/09 12:51:57;;;;;;;3.97;1.92;;;;;;;;;;5063338;28;20530;-79
2022/03/09 12:54:34;;;;;;;4.45;1.70;;;;;;;;;;5063322;28;20033;-78
2022/03/09 12:57:11;;;;;;;3.80;1.90;;;;;;;;;;5063356;28;20032;-80
2022/03/09 12:59:38;;;;;;;5.47;1.80;;;;;;;;;;5063290;28;20025;-81
2022/03/09 13:02:04;;;;;;;4.68;2.00;;;;;;;;;;5063410;28;20032;-78
2022/03/09 13:04:29;;;;;;;4.75;2.25;;;;;;;;;;5045294;28;20020;-80
2022/03/09 13:07:08;;;;;;;4.30;1.90;;;;;;;;;;5044850;28;20028;-81
2022/03/09 13:09:33;;;;;;;5.00;2.25;;;;;;;;;;5062754;28;20470;-77
2022/03/09 13:12:07;;;;;;;5.60;2.42;;;;;;;;;;5063084;28;20021;-79
2022/03/09 13:14:32;;;;;;;3.70;2.00;;;;;;;;;;5062982;28;20029;-79
2022/03/09 13:17:02;;;;;;;6.03;2.67;;;;;;;;;;5044513;28;20055;-80
2022/03/09 13:19:33;;;;;;;4.85;2.10;;;;;;;;;;5062792;28;20089;-79
2022/03/09 13:21:58;;;;;;;5.65;2.30;;;;;;;;;;5062956;28;20020;-80
2022/03/09 13:24:25;;;;;;;5.32;2.50;;;;;;;;;;5044808;28;20115;-80
2022/03/09 13:26:50;;;;;;;5.35;2.67;;;;;;;;;;5062861;28;20028;-81
2022/03/09 13:29:24;;;;;;;5.18;2.40;;;;;;;;;;5044504;28;20033;-79
2022/03/09 13:31:55;;;;;;;3.97;1.98;;;;;;;;;;5044364;28;20029;-80
2022/03/09 13:34:37;;;;;;;4.53;2.28;;;;;;;;;;5062541;28;20092;-80
2022/03/09 13:37:07;;;;;;;4.80;2.40;;;;;;;;;;5044847;28;20033;-79
2022/03/09 13:39:41;;;;;;;5.18;2.50;;;;;;;;;;5062630;28;20041;-79
2022/03/09 13:42:14;;;;;;;7.03;3.03;;;;;;;;;;5062616;28;20092;-80
2022/03/09 13:44:39;;;;;;;5.45;2.63;;;;;;;;;;5045863;28;20055;-78
2022/03/09 13:47:08;;;;;;;4.65;2.80;;;;;;;;;;5066989;28;20072;-77
2022/03/09 13:49:44;;;;;;;5.35;2.80;;;;;;;;;;5066697;28;20025;-79
2022/03/09 13:52:34;;;;;;;5.53;3.08;;;;;;;;;;5066820;28;20025;-81
2022/03/09 13:55:04;;;;;;;7.55;3.67;;;;;;;;;;5048522;28;20039;-81
2022/03/09 13:57:32;;;;;;;7.90;3.28;;;;;;;;;;5048172;28;20498;-81
2022/03/09 14:00:01;;;;;;;9.20;3.92;;;;;;;;;;5048166;28;20021;-80
2022/03/09 14:02:28;;;;;;;5.25;2.70;;;;;;;;;;5048551;28;20144;-79
2022/03/09 14:04:54;;;;;;;7.43;3.08;;;;;;;;;;5066462;28;20067;-80
2022/03/09 14:07:21;;;;;;;6.07;3.58;;;;;;;;;;5066439;28;20013;-79
2022/03/09 14:10:12;;;;;;;6.38;2.85;;;;;;;;;;5048149;28;20032;-79
2022/03/09 14:12:39;;;;;;;8.45;3.75;;;;;;;;;;5066239;28;20027;-78
2022/03/09 14:15:05;;;;;;;11.73;4.05;;;;;;;;;;5066029;28;20045;-80
2022/03/09 14:17:30;;;;;;;11.57;4.57;;;;;;;;;;5048079;28;20033;-81
2022/03/09 14:19:56;;;;;;;5.72;3.50;;;;;;;;;;5066050;28;20039;-79
2022/03/09 14:22:22;;;;;;;6.65;3.95;;;;;;;;;;5066114;28;20043;-78
2022/03/09 14:24:48;;;;;;;7.60;3.08;;;;;;;;;;5047993;28;20029;-79
2022/03/09 14:27:14;;;;;;;5.03;2.95;;;;;;;;;;5066042;28;20369;-79
2022/03/09 14:29:40;;;;;;;6.22;3.28;;;;;;;;;;5065776;28;20088;-80
2022/03/09 14:32:06;;;;;;;5.93;3.13;;;;;;;;;;5066112;28;20033;-79
2022/03/09 14:34:31;;;;;;;8.73;3.45;;;;;;;;;;5047862;28;20250;-79
2022/03/09 14:37:00;;;;;;;6.68;3.45;;;;;;;;;;5048017;28;20049;-79
2022/03/09 14:39:25;;;;;;;6.40;3.05;;;;;;;;;;5047520;28;20025;-79
2022/03/09 14:41:52;;;;;;;5.60;3.10;;;;;;;;;;5065825;28;20028;-79
2022/03/09 14:44:18;;;;;;;4.63;2.90;;;;;;;;;;5065534;28;20142;-80
2022/03/09 14:46:43;;;;;;;6.45;2.90;;;;;;;;;;5065591;28;20021;-79
2022/03/09 14:49:08;;;;;;;7.30;2.72;;;;;;;;;;5065498;28;20025;-79